createdAt,value
2022-10-22T00:00:56.659Z,99.90
2022-10-22T00:03:24.564Z,99.90
2022-10-22T00:05:52.308Z,99.90
2022-10-22T00:08:20.041Z,99.90
2022-10-22T00:10:47.838Z,99.90
2022-10-22T00:13:16.109Z,99.90
2022-10-22T00:15:45.232Z,99.90
2022-10-22T00:18:12.993Z,99.90
2022-10-22T00:20:40.781Z,99.90
2022-10-22T00:23:08.568Z,99.90
2022-10-22T00:25:37.092Z,99.90
2022-10-22T00:28:05.197Z,99.90
2022-10-22T00:30:32.989Z,99.90
2022-10-22T00:33:02.098Z,99.90
2022-10-22T00:35:30.041Z,99.90
2022-10-22T00:37:57.773Z,99.90
2022-10-22T00:40:25.863Z,99.90
2022-10-22T00:42:53.662Z,99.90
2022-10-22T00:45:23.900Z,99.90
2022-10-22T00:47:56.317Z,99.90
2022-10-22T00:50:29.565Z,99.90
2022-10-22T00:52:58.388Z,99.90
2022-10-22T00:55:27.284Z,99.90
2022-10-22T00:57:56.341Z,99.90
2022-10-22T01:00:24.457Z,99.90
2022-10-22T01:02:53.357Z,99.90
2022-10-22T01:05:21.929Z,99.90
2022-10-22T01:07:53.787Z,99.90
2022-10-22T01:10:33.241Z,99.90
2022-10-22T01:13:12.703Z,99.90
2022-10-22T01:15:51.581Z,99.90
2022-10-22T01:18:25.466Z,99.90
2022-10-22T01:21:04.873Z,99.90
2022-10-22T01:24:09.374Z,99.90
2022-10-22T01:26:54.923Z,99.90
2022-10-22T01:29:28.855Z,99.90
2022-10-22T01:32:01.401Z,99.90
2022-10-22T01:34:31.019Z,99.90
2022-10-22T01:37:00.506Z,99.90
2022-10-22T01:39:30.365Z,99.90
2022-10-22T01:41:59.583Z,99.90
2022-10-22T01:44:31.621Z,99.90
2022-10-22T01:47:15.974Z,99.90
2022-10-22T01:50:02.645Z,99.90
2022-10-22T01:52:45.845Z,99.90
2022-10-22T01:55:20.710Z,99.90
2022-10-22T01:57:54.726Z,99.90
2022-10-22T02:00:24.536Z,99.90
2022-10-22T02:02:59.111Z,99.90
2022-10-22T02:05:33.281Z,99.90
2022-10-22T02:08:06.590Z,99.90
2022-10-22T02:10:37.829Z,99.90
2022-10-22T02:13:09.042Z,99.90
2022-10-22T02:15:39.424Z,99.90
2022-10-22T02:18:09.624Z,99.90
2022-10-22T02:20:39.609Z,99.90
2022-10-22T02:23:07.606Z,99.90
2022-10-22T02:25:37.363Z,99.90
2022-10-22T02:28:14.249Z,99.90
2022-10-22T02:30:47.600Z,99.90
2022-10-22T02:33:20.924Z,99.90
2022-10-22T02:35:50.696Z,99.90
2022-10-22T02:38:19.638Z,99.90
2022-10-22T02:40:48.116Z,99.90
2022-10-22T02:43:15.996Z,99.90
2022-10-22T02:45:45.553Z,99.90
2022-10-22T02:48:13.538Z,99.90
2022-10-22T02:50:41.546Z,99.90
2022-10-22T02:53:09.417Z,99.90
2022-10-22T02:55:37.365Z,99.90
2022-10-22T02:58:05.375Z,99.90
2022-10-22T03:00:33.282Z,99.90
2022-10-22T03:03:02.566Z,99.90
2022-10-22T03:05:30.398Z,99.90
2022-10-22T03:07:58.300Z,99.90
2022-10-22T03:10:26.224Z,99.90
2022-10-22T03:12:54.463Z,99.90
2022-10-22T03:15:22.417Z,99.90
2022-10-22T03:17:50.285Z,99.90
2022-10-22T03:20:19.548Z,99.90
2022-10-22T03:22:48.047Z,99.90
2022-10-22T03:25:20.304Z,99.90
2022-10-22T03:27:50.625Z,99.90
2022-10-22T03:30:18.693Z,99.90
2022-10-22T03:32:46.621Z,99.90
2022-10-22T03:35:14.537Z,99.90
2022-10-22T03:37:43.933Z,99.90
2022-10-22T03:40:13.624Z,99.90
2022-10-22T03:42:42.638Z,99.90
2022-10-22T03:45:11.766Z,99.90
2022-10-22T03:47:39.971Z,99.90
2022-10-22T03:50:09.433Z,99.90
2022-10-22T03:52:38.493Z,99.90
2022-10-22T03:55:09.227Z,99.90
2022-10-22T03:57:37.749Z,99.90
2022-10-22T04:00:07.281Z,99.90
2022-10-22T04:02:35.172Z,99.90
2022-10-22T04:05:03.117Z,99.90
2022-10-22T04:07:31.098Z,99.90
2022-10-22T04:09:59.006Z,99.90
2022-10-22T04:12:28.249Z,99.90
2022-10-22T04:14:56.128Z,99.90
2022-10-22T04:17:24.009Z,99.90
2022-10-22T04:19:51.905Z,99.90
2022-10-22T04:22:19.736Z,99.90
2022-10-22T04:24:47.645Z,99.90
2022-10-22T04:27:15.524Z,99.90
2022-10-22T04:29:44.738Z,99.90
2022-10-22T04:32:12.578Z,99.90
2022-10-22T04:34:40.420Z,99.90
2022-10-22T04:37:08.270Z,99.90
2022-10-22T04:39:36.159Z,99.90
2022-10-22T04:42:04.110Z,99.90
2022-10-22T04:44:32.062Z,99.90
2022-10-22T04:47:01.402Z,99.90
2022-10-22T04:49:29.428Z,99.90
2022-10-22T04:51:57.272Z,99.90
2022-10-22T04:54:27.755Z,99.90
2022-10-22T04:56:58.420Z,99.90
2022-10-22T04:59:26.319Z,99.90
2022-10-22T05:01:54.157Z,99.90
2022-10-22T05:04:23.345Z,99.90
2022-10-22T05:06:51.222Z,99.90
2022-10-22T05:09:21.513Z,99.90
2022-10-22T05:11:51.496Z,99.90
2022-10-22T05:14:22.475Z,99.90
2022-10-22T05:16:50.790Z,99.90
2022-10-22T05:19:20.702Z,99.90
2022-10-22T05:21:49.910Z,99.90
2022-10-22T05:24:18.073Z,99.90
2022-10-22T05:26:46.195Z,99.90
2022-10-22T05:29:14.863Z,99.90
2022-10-22T05:31:42.733Z,99.90
2022-10-22T05:34:10.801Z,99.90
2022-10-22T05:36:38.746Z,99.90
2022-10-22T05:39:08.222Z,99.90
2022-10-22T05:41:36.813Z,99.90
2022-10-22T05:44:05.401Z,99.90
2022-10-22T05:46:36.546Z,99.90
2022-10-22T05:49:08.644Z,99.90
2022-10-22T05:51:38.145Z,99.90
2022-10-22T05:54:10.916Z,99.90
2022-10-22T05:56:39.850Z,99.90
2022-10-22T05:59:07.708Z,99.90
2022-10-22T06:01:36.318Z,99.90
2022-10-22T06:04:05.897Z,99.90
2022-10-22T06:06:36.258Z,99.90
2022-10-22T06:09:12.062Z,99.90
2022-10-22T06:11:40.001Z,99.90
2022-10-22T06:14:07.926Z,99.90
2022-10-22T06:16:35.801Z,99.90
2022-10-22T06:19:04.281Z,99.90
2022-10-22T06:21:32.904Z,99.90
2022-10-22T06:24:02.227Z,99.90
2022-10-22T06:26:32.140Z,99.90
2022-10-22T06:29:00.860Z,99.90
2022-10-22T06:31:29.564Z,99.90
2022-10-22T06:33:57.993Z,99.90
2022-10-22T06:36:26.825Z,99.90
2022-10-22T06:38:56.283Z,99.90
2022-10-22T06:41:28.574Z,99.90
2022-10-22T06:43:59.940Z,99.90
2022-10-22T06:46:27.878Z,99.90
2022-10-22T06:48:58.115Z,99.90
2022-10-22T06:51:27.041Z,99.90
2022-10-22T06:53:55.614Z,99.90
2022-10-22T06:56:25.490Z,99.90
2022-10-22T06:58:55.351Z,99.90
2022-10-22T07:01:26.694Z,99.90
2022-10-22T07:03:55.057Z,99.90
2022-10-22T07:06:24.689Z,99.90
2022-10-22T07:08:52.872Z,99.90
2022-10-22T07:11:23.163Z,99.90
2022-10-22T07:13:51.837Z,99.90
2022-10-22T07:16:19.946Z,99.90
2022-10-22T07:18:49.726Z,99.90
2022-10-22T07:21:20.230Z,99.90
2022-10-22T07:23:48.243Z,99.90
2022-10-22T07:26:17.954Z,99.90
2022-10-22T07:28:45.871Z,99.90
2022-10-22T07:31:15.634Z,99.90
2022-10-22T07:33:43.538Z,99.90
2022-10-22T07:36:17.583Z,99.90
2022-10-22T07:38:46.070Z,99.90
2022-10-22T07:41:14.741Z,99.90
2022-10-22T07:43:43.001Z,99.90
2022-10-22T07:46:10.982Z,99.90
2022-10-22T07:48:39.022Z,99.90
2022-10-22T07:51:07.778Z,99.90
2022-10-22T07:53:37.515Z,99.90
2022-10-22T07:56:05.992Z,99.90
2022-10-22T07:58:33.838Z,99.90
2022-10-22T08:01:05.687Z,99.90
2022-10-22T08:03:34.200Z,99.90
2022-10-22T08:06:02.737Z,99.90
2022-10-22T08:08:31.145Z,99.90
2022-10-22T08:11:01.798Z,99.90
2022-10-22T08:13:31.032Z,99.90
2022-10-22T08:15:59.973Z,99.90
2022-10-22T08:18:28.282Z,99.90
2022-10-22T08:20:56.181Z,99.90
2022-10-22T08:23:26.109Z,99.90
2022-10-22T08:25:56.987Z,99.90
2022-10-22T08:28:28.446Z,99.90
2022-10-22T08:30:56.353Z,99.90
2022-10-22T08:33:24.290Z,99.90
2022-10-22T08:35:52.828Z,99.90
2022-10-22T08:38:21.274Z,99.90
2022-10-22T08:40:52.507Z,99.90
2022-10-22T08:43:49.626Z,99.90
2022-10-22T08:46:42.885Z,99.90
2022-10-22T08:49:23.148Z,99.90
2022-10-22T08:51:51.608Z,99.90
2022-10-22T08:54:29.035Z,99.90
2022-10-22T09:01:20.607Z,99.90
2022-10-22T09:03:53.365Z,99.90
2022-10-22T09:06:25.199Z,93.00
2022-10-22T09:08:54.690Z,83.00
2022-10-22T09:11:28.491Z,75.50
2022-10-22T09:13:58.298Z,71.50
2022-10-22T09:16:36.290Z,66.50
2022-10-22T09:19:13.875Z,65.00
2022-10-22T09:21:51.642Z,63.10
2022-10-22T09:24:32.149Z,62.40
2022-10-22T09:27:02.289Z,60.50
2022-10-22T09:29:34.783Z,61.80
2022-10-22T09:32:04.416Z,67.00
2022-10-22T09:34:33.553Z,70.10
2022-10-22T09:37:04.093Z,72.80
2022-10-22T09:39:34.948Z,70.00
2022-10-22T09:42:03.065Z,69.80
2022-10-22T09:44:34.843Z,70.50
2022-10-22T09:47:07.250Z,73.00
2022-10-22T09:49:37.092Z,78.30
2022-10-22T09:52:18.314Z,84.40
2022-10-22T09:54:46.192Z,90.20
2022-10-22T09:57:17.646Z,92.50
2022-10-22T09:59:49.189Z,93.20
2022-10-22T10:02:37.408Z,91.70
2022-10-22T10:05:08.325Z,88.80
2022-10-22T10:07:37.602Z,80.10
2022-10-22T10:10:20.362Z,76.30
2022-10-22T10:12:55.226Z,77.40
2022-10-22T10:15:28.909Z,77.90
2022-10-22T10:18:08.095Z,74.70
2022-10-22T10:20:41.207Z,75.20
2022-10-22T10:23:16.485Z,71.30
2022-10-22T10:25:52.271Z,66.70
2022-10-22T10:28:45.433Z,66.80
2022-10-22T10:31:23.724Z,69.70
2022-10-22T10:34:02.217Z,73.00
2022-10-22T10:36:37.804Z,75.60
2022-10-22T10:39:09.710Z,76.50
2022-10-22T10:41:46.155Z,76.50
2022-10-22T10:44:30.605Z,73.20
2022-10-22T10:47:12.870Z,69.00
2022-10-22T10:49:44.631Z,62.60
2022-10-22T10:52:21.587Z,61.20
2022-10-22T10:55:05.604Z,61.90
2022-10-22T10:57:45.762Z,60.00
2022-10-22T11:00:17.950Z,58.50
2022-10-22T11:03:24.586Z,56.20
2022-10-22T11:05:56.369Z,54.90
2022-10-22T11:08:28.021Z,53.10
2022-10-22T11:11:01.340Z,52.10
2022-10-22T11:13:35.608Z,50.90
2022-10-22T11:16:10.889Z,50.00
2022-10-22T11:18:41.573Z,48.90
2022-10-22T11:21:18.634Z,49.40
2022-10-22T11:23:51.448Z,50.30
2022-10-22T11:26:30.142Z,50.30
2022-10-22T11:28:59.593Z,50.80
2022-10-22T11:31:28.477Z,51.80
2022-10-22T11:34:28.553Z,52.80
2022-10-22T11:36:56.385Z,51.20
2022-10-22T11:39:39.133Z,50.00
2022-10-22T11:42:11.213Z,48.60
2022-10-22T11:45:01.439Z,48.40
2022-10-22T11:47:32.932Z,46.90
2022-10-22T11:50:17.889Z,46.50
2022-10-22T11:52:55.942Z,48.10
2022-10-22T11:55:35.057Z,48.30
2022-10-22T11:58:23.645Z,48.30
2022-10-22T12:00:51.478Z,48.00
2022-10-22T12:03:24.530Z,49.90
2022-10-22T12:06:08.387Z,53.50
2022-10-22T12:08:44.974Z,58.10
2022-10-22T12:11:18.055Z,62.70
2022-10-22T12:14:03.577Z,64.00
2022-10-22T12:16:55.098Z,63.70
2022-10-22T12:19:31.023Z,62.70
2022-10-22T12:22:01.207Z,59.80
2022-10-22T12:24:35.203Z,57.80
2022-10-22T12:27:03.171Z,57.00
2022-10-22T12:29:33.798Z,57.40
2022-10-22T12:32:04.904Z,56.70
2022-10-22T12:34:32.742Z,56.70
2022-10-22T12:37:00.663Z,55.30
2022-10-22T12:39:29.914Z,55.60
2022-10-22T12:41:59.125Z,56.00
2022-10-22T12:44:26.989Z,55.90
2022-10-22T12:46:57.044Z,55.60
2022-10-22T12:49:34.283Z,54.40
2022-10-22T12:52:04.028Z,53.20
2022-10-22T12:54:34.150Z,52.00
2022-10-22T12:57:03.595Z,51.90
2022-10-22T12:59:35.642Z,50.40
2022-10-22T13:02:09.035Z,50.40
2022-10-22T13:04:39.462Z,50.70
2022-10-22T13:07:21.272Z,50.40
2022-10-22T13:09:59.965Z,49.30
2022-10-22T13:12:36.161Z,49.00
2022-10-22T13:15:19.744Z,48.10
2022-10-22T13:17:49.561Z,49.00
2022-10-22T13:20:21.969Z,48.70
2022-10-22T13:23:00.092Z,48.40
2022-10-22T13:25:30.177Z,48.80
2022-10-22T13:28:02.719Z,48.20
2022-10-22T13:30:32.281Z,48.00
2022-10-22T13:33:01.897Z,48.10
2022-10-22T13:35:33.011Z,48.70
2022-10-22T13:38:01.478Z,49.60
2022-10-22T13:40:29.696Z,50.20
2022-10-22T13:42:58.901Z,50.70
2022-10-22T13:45:26.744Z,51.50
2022-10-22T13:47:56.972Z,52.70
2022-10-22T13:50:24.845Z,54.40
2022-10-22T13:52:55.293Z,57.00
2022-10-22T13:55:25.934Z,58.10
2022-10-22T13:57:56.280Z,58.60
2022-10-22T14:00:26.407Z,60.30
2022-10-22T14:02:58.065Z,62.60
2022-10-22T14:05:26.243Z,64.90
2022-10-22T14:07:54.420Z,67.50
2022-10-22T14:10:25.105Z,67.90
2022-10-22T14:12:54.001Z,69.00
2022-10-22T14:15:24.236Z,71.80
2022-10-22T14:17:57.229Z,72.90
2022-10-22T14:20:29.013Z,74.10
2022-10-22T14:22:57.403Z,76.20
2022-10-22T14:25:26.858Z,76.40
2022-10-22T14:27:54.757Z,77.60
2022-10-22T14:30:24.157Z,78.60
2022-10-22T14:32:52.437Z,79.70
2022-10-22T14:35:23.377Z,80.80
2022-10-22T14:37:51.661Z,82.40
2022-10-22T14:40:21.467Z,84.40
2022-10-22T14:42:50.085Z,85.10
2022-10-22T14:45:21.266Z,86.20
2022-10-22T14:47:49.919Z,87.80
2022-10-22T14:50:18.591Z,89.10
2022-10-22T14:52:48.114Z,90.10
2022-10-22T14:55:17.447Z,90.40
2022-10-22T14:57:45.779Z,90.90
2022-10-22T15:00:16.330Z,91.00
2022-10-22T15:02:44.547Z,91.80
2022-10-22T15:05:12.760Z,91.80
2022-10-22T15:07:40.965Z,92.40
2022-10-22T15:10:11.154Z,93.20
2022-10-22T15:12:39.013Z,93.30
2022-10-22T15:15:07.987Z,93.20
2022-10-22T15:17:35.939Z,93.20
2022-10-22T15:20:05.402Z,93.90
2022-10-22T15:22:35.180Z,94.10
2022-10-22T15:25:04.811Z,94.50
2022-10-22T15:27:34.447Z,94.80
2022-10-22T15:32:35.339Z,95.70
2022-10-22T15:35:03.533Z,96.10
2022-10-22T15:37:31.795Z,96.60
2022-10-22T15:40:00.456Z,97.20
2022-10-22T15:42:28.382Z,97.80
2022-10-22T15:44:59.881Z,98.70
2022-10-22T15:47:29.407Z,99.80
2022-10-22T15:49:57.384Z,99.90
2022-10-22T15:52:25.320Z,99.90
2022-10-22T15:54:53.240Z,99.90
2022-10-22T15:57:21.148Z,99.90
2022-10-22T15:59:49.986Z,99.90
2022-10-22T16:02:19.241Z,99.90
2022-10-22T16:04:47.805Z,99.90
2022-10-22T16:07:15.685Z,99.90
2022-10-22T16:09:43.543Z,99.90
2022-10-22T16:12:13.136Z,99.90
2022-10-22T16:14:43.333Z,99.90
2022-10-22T16:17:11.182Z,99.90
2022-10-22T16:19:40.375Z,99.90
2022-10-22T16:22:10.077Z,99.90
2022-10-22T16:24:40.263Z,99.90
2022-10-22T16:27:08.359Z,99.90
2022-10-22T16:29:38.174Z,99.90
2022-10-22T16:32:06.673Z,99.90
2022-10-22T16:34:34.591Z,99.90
2022-10-22T16:37:09.653Z,99.90
2022-10-22T16:39:37.549Z,99.90
2022-10-22T16:42:05.618Z,99.90
2022-10-22T16:44:33.474Z,99.90
2022-10-22T16:47:01.879Z,99.90
2022-10-22T16:49:29.771Z,99.90
2022-10-22T16:51:57.631Z,99.90
2022-10-22T16:54:26.869Z,99.90
2022-10-22T16:56:54.754Z,99.90
2022-10-22T16:59:22.641Z,99.90
2022-10-22T17:01:50.556Z,99.90
2022-10-22T17:04:18.517Z,99.90
2022-10-22T17:06:46.368Z,99.90
2022-10-22T17:09:14.958Z,99.90
2022-10-22T17:11:44.995Z,99.90
2022-10-22T17:14:13.069Z,99.90
2022-10-22T17:16:40.924Z,99.90
2022-10-22T17:19:08.932Z,99.90
2022-10-22T17:21:36.801Z,99.90
2022-10-22T17:24:05.036Z,99.90
2022-10-22T17:26:34.530Z,99.90
2022-10-22T17:29:03.989Z,99.90
2022-10-22T17:31:35.432Z,99.90
2022-10-22T17:34:03.349Z,99.90
2022-10-22T17:36:35.656Z,99.90
2022-10-22T17:39:07.271Z,99.90
2022-10-22T17:41:37.348Z,99.90
2022-10-22T17:44:09.755Z,99.90
2022-10-22T17:46:38.271Z,99.90
2022-10-22T17:49:09.078Z,99.90
2022-10-22T17:51:36.982Z,99.90
2022-10-22T17:54:07.501Z,99.90
2022-10-22T17:56:39.897Z,99.90
2022-10-22T17:59:09.585Z,99.90
2022-10-22T18:01:43.230Z,99.90
2022-10-22T18:04:14.206Z,99.90
2022-10-22T18:06:42.268Z,99.90
2022-10-22T18:09:15.730Z,99.90
2022-10-22T18:11:46.754Z,99.90
2022-10-22T18:14:17.318Z,99.90
2022-10-22T18:16:45.614Z,99.90
2022-10-22T18:19:16.347Z,99.90
2022-10-22T18:21:44.241Z,99.90
2022-10-22T18:24:12.365Z,99.90
2022-10-22T18:26:40.196Z,99.90
2022-10-22T18:29:08.098Z,99.90
2022-10-22T18:31:37.334Z,99.90
2022-10-22T18:34:05.186Z,99.90
2022-10-22T18:36:33.049Z,99.90
2022-10-22T18:39:02.323Z,99.90
2022-10-22T18:41:31.697Z,99.90
2022-10-22T18:44:00.928Z,99.90
2022-10-22T18:46:29.697Z,99.90
2022-10-22T18:49:00.020Z,99.90
2022-10-22T18:51:31.555Z,99.90
2022-10-22T18:54:05.951Z,99.90
2022-10-22T18:56:47.870Z,99.90
2022-10-22T18:59:19.139Z,99.90
2022-10-22T19:01:47.002Z,99.90
2022-10-22T19:04:16.457Z,99.90
2022-10-22T19:06:45.697Z,99.90
2022-10-22T19:09:14.606Z,99.90
2022-10-22T19:11:43.557Z,99.90
2022-10-22T19:14:11.476Z,99.90
2022-10-22T19:16:39.393Z,99.90
2022-10-22T19:19:08.279Z,99.90
2022-10-22T19:21:38.441Z,99.90
2022-10-22T19:24:07.425Z,99.90
2022-10-22T19:26:35.616Z,99.90
2022-10-22T19:29:05.014Z,99.90
2022-10-22T19:31:33.090Z,99.90
2022-10-22T19:34:02.497Z,99.90
2022-10-22T19:36:32.466Z,99.90
2022-10-22T19:39:02.706Z,99.90
2022-10-22T19:41:31.926Z,99.90
2022-10-22T19:44:01.398Z,99.90
2022-10-22T19:46:32.373Z,99.90
2022-10-22T19:49:00.790Z,99.90
2022-10-22T19:51:30.661Z,99.90
2022-10-22T19:54:01.261Z,99.90
2022-10-22T19:56:29.974Z,99.90
2022-10-22T19:58:57.877Z,99.90
2022-10-22T20:01:26.710Z,99.90
2022-10-22T20:03:55.188Z,99.90
2022-10-22T20:06:23.049Z,99.90
2022-10-22T20:08:55.191Z,99.90
2022-10-22T20:11:27.740Z,99.90
2022-10-22T20:13:56.683Z,99.90
2022-10-22T20:16:28.347Z,99.90
2022-10-22T20:18:57.083Z,99.90
2022-10-22T20:21:24.990Z,99.90
2022-10-22T20:23:54.345Z,99.90
2022-10-22T20:26:23.817Z,99.90
2022-10-22T20:28:53.256Z,99.90
2022-10-22T20:31:23.897Z,99.90
2022-10-22T20:33:52.309Z,99.90
2022-10-22T20:36:22.609Z,99.90
2022-10-22T20:38:51.492Z,99.90
2022-10-22T20:41:21.346Z,99.90
2022-10-22T20:43:51.298Z,99.90
2022-10-22T20:46:22.849Z,99.90
2022-10-22T20:48:51.941Z,99.90
2022-10-22T20:51:20.042Z,99.90
2022-10-22T20:53:48.066Z,99.90
2022-10-22T20:56:16.349Z,99.90
2022-10-22T20:58:48.250Z,99.90
2022-10-22T21:01:21.356Z,99.90
2022-10-22T21:03:51.813Z,99.90
2022-10-22T21:06:20.918Z,99.90
2022-10-22T21:08:48.868Z,99.90
2022-10-22T21:11:16.914Z,99.90
2022-10-22T21:13:44.728Z,99.90
2022-10-22T21:16:15.002Z,99.90
2022-10-22T21:18:42.842Z,99.90
2022-10-22T21:21:12.921Z,99.90
2022-10-22T21:23:41.143Z,99.90
2022-10-22T21:26:09.206Z,99.90
2022-10-22T21:28:37.758Z,99.90
2022-10-22T21:31:07.482Z,99.90
2022-10-22T21:33:37.154Z,99.90
2022-10-22T21:36:06.076Z,99.90
2022-10-22T21:38:36.041Z,99.90
2022-10-22T21:41:06.250Z,99.90
2022-10-22T21:43:34.238Z,99.90
2022-10-22T21:46:08.074Z,99.90
2022-10-22T21:48:37.092Z,99.90
2022-10-22T21:51:09.724Z,99.90
2022-10-22T21:53:39.363Z,99.90
2022-10-22T21:56:08.536Z,99.90
2022-10-22T21:58:37.113Z,99.90
2022-10-22T22:01:05.777Z,99.90
2022-10-22T22:03:33.945Z,99.90
2022-10-22T22:06:03.281Z,99.90
2022-10-22T22:08:31.398Z,99.90
2022-10-22T22:11:04.188Z,99.90
2022-10-22T22:13:32.673Z,99.90
2022-10-22T22:16:02.085Z,99.90
2022-10-22T22:18:30.606Z,99.90
2022-10-22T22:20:59.026Z,99.90
2022-10-22T22:23:27.305Z,99.90
2022-10-22T22:25:59.945Z,99.90
2022-10-22T22:28:30.709Z,99.90
2022-10-22T22:30:59.983Z,99.90
2022-10-22T22:33:28.294Z,99.90
2022-10-22T22:35:59.864Z,99.90
2022-10-22T22:38:27.742Z,99.90
2022-10-22T22:40:55.579Z,99.90
2022-10-22T22:43:23.405Z,99.90
2022-10-22T22:46:01.627Z,99.90
2022-10-22T22:48:31.297Z,99.90
2022-10-22T22:50:59.965Z,99.90
2022-10-22T22:53:28.668Z,99.90
2022-10-22T22:56:10.794Z,99.90
2022-10-22T22:58:40.365Z,99.90
2022-10-22T23:01:16.853Z,99.90
2022-10-22T23:03:46.243Z,99.90
2022-10-22T23:06:14.977Z,99.90
2022-10-22T23:08:43.577Z,99.90
2022-10-22T23:11:13.057Z,99.90
2022-10-22T23:13:41.789Z,99.90
2022-10-22T23:16:13.322Z,99.90
2022-10-22T23:18:43.074Z,99.90
2022-10-22T23:21:14.308Z,99.90
2022-10-22T23:23:44.628Z,99.90
2022-10-22T23:26:13.294Z,99.90
2022-10-22T23:28:41.253Z,99.90
2022-10-22T23:31:11.545Z,99.90
2022-10-22T23:33:39.402Z,99.90
2022-10-22T23:36:09.177Z,99.90
2022-10-22T23:38:38.698Z,99.90
2022-10-22T23:41:07.165Z,99.90
2022-10-22T23:43:37.596Z,99.90
2022-10-22T23:46:06.104Z,99.90
2022-10-22T23:48:34.277Z,99.90
2022-10-22T23:51:06.336Z,99.90
2022-10-22T23:53:35.614Z,99.90
2022-10-22T23:56:05.968Z,99.90
2022-10-22T23:58:34.773Z,99.90
